Terminal Aerodrome Forecast
Issued by NWS

Home | Current Version | Previous Version | Text Only | Print | Product List | Glossary Off
Versions: 1 2 3 4 5 6 7 8 9 10 11 12 13 14 15 16 17 18 19 20 21 22 23

000
FTUS43 KTOP 190531
TAFMHK
TAF
KMHK 190531Z 1906/2006 15004KT P6SM OVC050
     FM191100 15004KT 6SM BR OVC025
     FM191300 14004KT 4SM BR OVC015
     FM191400 14004KT 2SM -DZ BR OVC008
     FM191600 14004KT 3SM -DZ BR OVC003
     FM191800 15006KT P6SM OVC009
     FM192000 14007KT P6SM OVC012
     FM200100 12004KT P6SM OVC006=

USA.gov is the U.S. government's official web portal to all federal, state and local government web resources and services.